sensor_id;sensor_type;location;lat;lon;timestamp;temperature;humidity
35027;DHT22;60696;51.426;6.934;2022-12-07T00:01:15;5.60;99.90
35027;DHT22;60696;51.426;6.934;2022-12-07T00:03:43;5.50;99.90
35027;DHT22;60696;51.426;6.934;2022-12-07T00:06:10;5.50;99.90
35027;DHT22;60696;51.426;6.934;2022-12-07T00:08:36;5.50;99.90
35027;DHT22;60696;51.426;6.934;2022-12-07T00:11:04;5.60;99.90
35027;DHT22;60696;51.426;6.934;2022-12-07T00:13:31;5.60;99.90
35027;DHT22;60696;51.426;6.934;2022-12-07T00:16:04;5.60;99.90
35027;DHT22;60696;51.426;6.934;2022-12-07T00:18:30;5.60;99.90
35027;DHT22;60696;51.426;6.934;2022-12-07T00:21:02;5.60;99.90
35027;DHT22;60696;51.426;6.934;2022-12-07T00:23:28;5.60;99.90
35027;DHT22;60696;51.426;6.934;2022-12-07T00:25:54;5.60;99.90
35027;DHT22;60696;51.426;6.934;2022-12-07T00:28:20;5.60;99.90
35027;DHT22;60696;51.426;6.934;2022-12-07T00:30:45;5.70;99.90
35027;DHT22;60696;51.426;6.934;2022-12-07T00:33:11;5.70;99.90
35027;DHT22;60696;51.426;6.934;2022-12-07T00:35:36;5.70;99.90
35027;DHT22;60696;51.426;6.934;2022-12-07T00:38:02;5.70;99.90
35027;DHT22;60696;51.426;6.934;2022-12-07T00:40:28;5.60;99.90
35027;DHT22;60696;51.426;6.934;2022-12-07T00:42:53;5.60;99.90
35027;DHT22;60696;51.426;6.934;2022-12-07T00:45:19;5.60;99.90
35027;DHT22;60696;51.426;6.934;2022-12-07T00:47:44;5.60;99.90
35027;DHT22;60696;51.426;6.934;2022-12-07T00:50:10;5.50;99.90
35027;DHT22;60696;51.426;6.934;2022-12-07T00:52:35;5.50;99.90
35027;DHT22;60696;51.426;6.934;2022-12-07T00:55:01;5.60;99.90
35027;DHT22;60696;51.426;6.934;2022-12-07T00:57:27;5.50;99.90
35027;DHT22;60696;51.426;6.934;2022-12-07T00:59:53;5.50;99.90
35027;DHT22;60696;51.426;6.934;2022-12-07T01:02:21;5.60;99.90
35027;DHT22;60696;51.426;6.934;2022-12-07T01:04:47;5.60;99.90
35027;DHT22;60696;51.426;6.934;2022-12-07T01:07:13;5.60;99.90
35027;DHT22;60696;51.426;6.934;2022-12-07T01:09:38;5.60;99.90
35027;DHT22;60696;51.426;6.934;2022-12-07T01:12:04;5.60;99.90
35027;DHT22;60696;51.426;6.934;2022-12-07T01:14:30;5.60;99.90
35027;DHT22;60696;51.426;6.934;2022-12-07T01:16:55;5.60;99.90
35027;DHT22;60696;51.426;6.934;2022-12-07T01:19:21;5.50;99.90
35027;DHT22;60696;51.426;6.934;2022-12-07T01:21:46;5.50;99.90
35027;DHT22;60696;51.426;6.934;2022-12-07T01:24:12;5.60;99.90
35027;DHT22;60696;51.426;6.934;2022-12-07T01:26:38;5.60;99.90
35027;DHT22;60696;51.426;6.934;2022-12-07T01:29:03;5.60;99.90
35027;DHT22;60696;51.426;6.934;2022-12-07T01:31:29;5.60;99.90
35027;DHT22;60696;51.426;6.934;2022-12-07T01:33:58;5.60;99.90
35027;DHT22;60696;51.426;6.934;2022-12-07T01:36:28;5.60;99.90
35027;DHT22;60696;51.426;6.934;2022-12-07T01:39:00;5.70;99.90
35027;DHT22;60696;51.426;6.934;2022-12-07T01:41:32;5.60;99.90
35027;DHT22;60696;51.426;6.934;2022-12-07T01:44:23;5.70;99.90
35027;DHT22;60696;51.426;6.934;2022-12-07T01:46:59;5.60;99.90
35027;DHT22;60696;51.426;6.934;2022-12-07T01:49:42;5.70;99.90
35027;DHT22;60696;51.426;6.934;2022-12-07T01:52:18;5.70;99.90
35027;DHT22;60696;51.426;6.934;2022-12-07T01:54:46;5.60;99.90
35027;DHT22;60696;51.426;6.934;2022-12-07T01:57:15;5.60;99.90
35027;DHT22;60696;51.426;6.934;2022-12-07T01:59:42;5.70;99.90
35027;DHT22;60696;51.426;6.934;2022-12-07T02:02:15;5.70;99.90
35027;DHT22;60696;51.426;6.934;2022-12-07T02:04:43;5.60;99.90
35027;DHT22;60696;51.426;6.934;2022-12-07T02:07:09;5.60;99.90
35027;DHT22;60696;51.426;6.934;2022-12-07T02:09:34;5.60;99.90
35027;DHT22;60696;51.426;6.934;2022-12-07T02:12:00;5.60;99.90
35027;DHT22;60696;51.426;6.934;2022-12-07T02:14:26;5.60;99.90
35027;DHT22;60696;51.426;6.934;2022-12-07T02:17:03;5.60;99.90
35027;DHT22;60696;51.426;6.934;2022-12-07T02:20:03;5.50;99.90
35027;DHT22;60696;51.426;6.934;2022-12-07T02:28:28;5.60;99.90
35027;DHT22;60696;51.426;6.934;2022-12-07T02:30:56;5.50;99.90
35027;DHT22;60696;51.426;6.934;2022-12-07T02:33:50;5.50;99.90
35027;DHT22;60696;51.426;6.934;2022-12-07T02:36:25;5.50;99.90
35027;DHT22;60696;51.426;6.934;2022-12-07T02:39:03;5.40;99.90
35027;DHT22;60696;51.426;6.934;2022-12-07T02:41:49;5.40;99.90
35027;DHT22;60696;51.426;6.934;2022-12-07T02:44:21;5.30;99.90
35027;DHT22;60696;51.426;6.934;2022-12-07T02:47:03;5.30;99.90
35027;DHT22;60696;51.426;6.934;2022-12-07T02:49:30;5.30;99.90
35027;DHT22;60696;51.426;6.934;2022-12-07T02:51:56;5.20;99.90
35027;DHT22;60696;51.426;6.934;2022-12-07T02:54:22;5.20;99.90
35027;DHT22;60696;51.426;6.934;2022-12-07T02:57:27;5.30;99.90
35027;DHT22;60696;51.426;6.934;2022-12-07T03:00:03;5.20;99.90
35027;DHT22;60696;51.426;6.934;2022-12-07T03:02:59;5.20;99.90
35027;DHT22;60696;51.426;6.934;2022-12-07T03:05:57;5.20;99.90
35027;DHT22;60696;51.426;6.934;2022-12-07T03:08:49;5.20;99.90
35027;DHT22;60696;51.426;6.934;2022-12-07T03:11:29;5.10;99.90
35027;DHT22;60696;51.426;6.934;2022-12-07T03:14:26;5.10;99.90
35027;DHT22;60696;51.426;6.934;2022-12-07T03:17:08;5.10;99.90
35027;DHT22;60696;51.426;6.934;2022-12-07T03:19:36;5.00;99.90
35027;DHT22;60696;51.426;6.934;2022-12-07T03:22:07;4.90;99.90
35027;DHT22;60696;51.426;6.934;2022-12-07T03:24:39;4.90;99.90
35027;DHT22;60696;51.426;6.934;2022-12-07T03:27:18;4.90;99.90
35027;DHT22;60696;51.426;6.934;2022-12-07T03:32:56;4.90;99.90
35027;DHT22;60696;51.426;6.934;2022-12-07T03:35:31;5.00;99.90
35027;DHT22;60696;51.426;6.934;2022-12-07T03:41:05;5.00;99.90
35027;DHT22;60696;51.426;6.934;2022-12-07T03:43:32;5.00;99.90
35027;DHT22;60696;51.426;6.934;2022-12-07T03:51:43;4.90;99.90
35027;DHT22;60696;51.426;6.934;2022-12-07T03:54:22;4.90;99.90
35027;DHT22;60696;51.426;6.934;2022-12-07T03:56:49;4.90;99.90
35027;DHT22;60696;51.426;6.934;2022-12-07T03:59:16;4.90;99.90
35027;DHT22;60696;51.426;6.934;2022-12-07T04:01:51;4.90;99.90
35027;DHT22;60696;51.426;6.934;2022-12-07T04:04:17;4.90;99.90
35027;DHT22;60696;51.426;6.934;2022-12-07T04:06:42;4.90;99.90
35027;DHT22;60696;51.426;6.934;2022-12-07T04:09:08;5.00;99.90
35027;DHT22;60696;51.426;6.934;2022-12-07T04:11:34;4.90;99.90
35027;DHT22;60696;51.426;6.934;2022-12-07T04:13:59;4.90;99.90
35027;DHT22;60696;51.426;6.934;2022-12-07T04:16:44;4.90;99.90
35027;DHT22;60696;51.426;6.934;2022-12-07T04:19:09;4.90;99.90
35027;DHT22;60696;51.426;6.934;2022-12-07T04:21:35;4.90;99.90
35027;DHT22;60696;51.426;6.934;2022-12-07T04:24:01;4.90;99.90
35027;DHT22;60696;51.426;6.934;2022-12-07T04:26:26;4.90;99.90
35027;DHT22;60696;51.426;6.934;2022-12-07T04:28:52;4.80;99.90
35027;DHT22;60696;51.426;6.934;2022-12-07T04:31:18;4.80;99.90
35027;DHT22;60696;51.426;6.934;2022-12-07T04:33:43;4.70;99.90
35027;DHT22;60696;51.426;6.934;2022-12-07T04:36:09;4.70;99.90
35027;DHT22;60696;51.426;6.934;2022-12-07T04:38:34;4.70;99.90
35027;DHT22;60696;51.426;6.934;2022-12-07T04:41:05;4.70;99.90
35027;DHT22;60696;51.426;6.934;2022-12-07T04:43:31;4.60;99.90
35027;DHT22;60696;51.426;6.934;2022-12-07T04:45:56;4.60;99.90
35027;DHT22;60696;51.426;6.934;2022-12-07T04:48:22;4.50;99.90
35027;DHT22;60696;51.426;6.934;2022-12-07T04:50:48;4.50;99.90
35027;DHT22;60696;51.426;6.934;2022-12-07T04:53:15;4.50;99.90
35027;DHT22;60696;51.426;6.934;2022-12-07T04:55:41;4.50;99.90
35027;DHT22;60696;51.426;6.934;2022-12-07T04:58:07;4.40;99.90
35027;DHT22;60696;51.426;6.934;2022-12-07T05:00:32;4.40;99.90
35027;DHT22;60696;51.426;6.934;2022-12-07T05:02:58;4.50;99.90
35027;DHT22;60696;51.426;6.934;2022-12-07T05:05:24;4.40;99.90
35027;DHT22;60696;51.426;6.934;2022-12-07T05:07:50;4.40;99.90
35027;DHT22;60696;51.426;6.934;2022-12-07T05:10:16;4.40;99.90
35027;DHT22;60696;51.426;6.934;2022-12-07T05:12:41;4.40;99.90
35027;DHT22;60696;51.426;6.934;2022-12-07T05:15:07;4.40;99.90
35027;DHT22;60696;51.426;6.934;2022-12-07T05:17:33;4.50;99.90
35027;DHT22;60696;51.426;6.934;2022-12-07T05:19:59;4.50;99.90
35027;DHT22;60696;51.426;6.934;2022-12-07T05:22:25;4.50;99.90
35027;DHT22;60696;51.426;6.934;2022-12-07T05:24:54;4.50;99.90
35027;DHT22;60696;51.426;6.934;2022-12-07T05:27:19;4.50;99.90
35027;DHT22;60696;51.426;6.934;2022-12-07T05:29:45;4.60;99.90
35027;DHT22;60696;51.426;6.934;2022-12-07T05:32:11;4.60;99.90
35027;DHT22;60696;51.426;6.934;2022-12-07T05:34:36;4.50;99.90
35027;DHT22;60696;51.426;6.934;2022-12-07T05:37:02;4.50;99.90
35027;DHT22;60696;51.426;6.934;2022-12-07T05:39:28;4.50;99.90
35027;DHT22;60696;51.426;6.934;2022-12-07T05:41:53;4.50;99.90
35027;DHT22;60696;51.426;6.934;2022-12-07T05:44:40;4.50;99.90
35027;DHT22;60696;51.426;6.934;2022-12-07T05:47:07;4.50;99.90
35027;DHT22;60696;51.426;6.934;2022-12-07T05:49:32;4.50;99.90
35027;DHT22;60696;51.426;6.934;2022-12-07T05:51:58;4.50;99.90
35027;DHT22;60696;51.426;6.934;2022-12-07T05:54:24;4.50;99.90
35027;DHT22;60696;51.426;6.934;2022-12-07T05:56:50;4.50;99.90
35027;DHT22;60696;51.426;6.934;2022-12-07T05:59:16;4.40;99.90
35027;DHT22;60696;51.426;6.934;2022-12-07T06:01:52;4.50;99.90
35027;DHT22;60696;51.426;6.934;2022-12-07T06:04:18;4.50;99.90
35027;DHT22;60696;51.426;6.934;2022-12-07T06:06:44;4.50;99.90
35027;DHT22;60696;51.426;6.934;2022-12-07T06:09:10;4.50;99.90
35027;DHT22;60696;51.426;6.934;2022-12-07T06:11:36;4.50;99.90
35027;DHT22;60696;51.426;6.934;2022-12-07T06:14:20;4.50;99.90
35027;DHT22;60696;51.426;6.934;2022-12-07T06:16:46;4.50;99.90
35027;DHT22;60696;51.426;6.934;2022-12-07T06:19:12;4.50;99.90
35027;DHT22;60696;51.426;6.934;2022-12-07T06:21:37;4.50;99.90
35027;DHT22;60696;51.426;6.934;2022-12-07T06:24:03;4.40;99.90
35027;DHT22;60696;51.426;6.934;2022-12-07T06:26:29;4.40;99.90
35027;DHT22;60696;51.426;6.934;2022-12-07T06:28:54;4.30;99.90
35027;DHT22;60696;51.426;6.934;2022-12-07T06:31:20;4.30;99.90
35027;DHT22;60696;51.426;6.934;2022-12-07T06:33:46;4.30;99.90
35027;DHT22;60696;51.426;6.934;2022-12-07T06:36:12;4.30;99.90
35027;DHT22;60696;51.426;6.934;2022-12-07T06:38:37;4.30;99.90
35027;DHT22;60696;51.426;6.934;2022-12-07T06:41:03;4.40;99.90
35027;DHT22;60696;51.426;6.934;2022-12-07T06:43:29;4.40;99.90
35027;DHT22;60696;51.426;6.934;2022-12-07T06:45:55;4.50;99.90
35027;DHT22;60696;51.426;6.934;2022-12-07T06:48:21;4.50;99.90
35027;DHT22;60696;51.426;6.934;2022-12-07T06:50:47;4.50;99.90
35027;DHT22;60696;51.426;6.934;2022-12-07T06:53:13;4.50;99.90
35027;DHT22;60696;51.426;6.934;2022-12-07T06:55:39;4.50;99.90
35027;DHT22;60696;51.426;6.934;2022-12-07T06:58:04;4.60;99.90
35027;DHT22;60696;51.426;6.934;2022-12-07T07:00:30;4.50;99.90
35027;DHT22;60696;51.426;6.934;2022-12-07T07:02:56;4.50;99.90
35027;DHT22;60696;51.426;6.934;2022-12-07T07:05:21;4.50;99.90
35027;DHT22;60696;51.426;6.934;2022-12-07T07:07:48;4.40;99.90
35027;DHT22;60696;51.426;6.934;2022-12-07T07:10:14;4.40;99.90
35027;DHT22;60696;51.426;6.934;2022-12-07T07:12:39;4.40;99.90
35027;DHT22;60696;51.426;6.934;2022-12-07T07:15:05;4.40;99.90
35027;DHT22;60696;51.426;6.934;2022-12-07T07:17:31;4.30;99.90
35027;DHT22;60696;51.426;6.934;2022-12-07T07:19:56;4.40;99.90
35027;DHT22;60696;51.426;6.934;2022-12-07T07:22:22;4.40;99.90
35027;DHT22;60696;51.426;6.934;2022-12-07T07:24:48;4.40;99.90
35027;DHT22;60696;51.426;6.934;2022-12-07T07:27:13;4.30;99.90
35027;DHT22;60696;51.426;6.934;2022-12-07T07:29:39;4.30;99.90
35027;DHT22;60696;51.426;6.934;2022-12-07T07:32:04;4.30;99.90
35027;DHT22;60696;51.426;6.934;2022-12-07T07:34:30;4.30;99.90
35027;DHT22;60696;51.426;6.934;2022-12-07T07:36:55;4.30;99.90
35027;DHT22;60696;51.426;6.934;2022-12-07T07:39:21;4.30;99.90
35027;DHT22;60696;51.426;6.934;2022-12-07T07:41:47;4.40;99.90
35027;DHT22;60696;51.426;6.934;2022-12-07T07:44:12;4.40;99.90
35027;DHT22;60696;51.426;6.934;2022-12-07T07:46:38;4.50;99.90
35027;DHT22;60696;51.426;6.934;2022-12-07T07:49:03;4.40;99.90
35027;DHT22;60696;51.426;6.934;2022-12-07T07:51:29;4.40;99.90
35027;DHT22;60696;51.426;6.934;2022-12-07T07:53:55;4.40;99.90
35027;DHT22;60696;51.426;6.934;2022-12-07T07:56:20;4.50;99.90
35027;DHT22;60696;51.426;6.934;2022-12-07T07:58:46;4.50;99.90
35027;DHT22;60696;51.426;6.934;2022-12-07T08:01:11;4.50;99.90
35027;DHT22;60696;51.426;6.934;2022-12-07T08:03:38;4.50;99.90
35027;DHT22;60696;51.426;6.934;2022-12-07T08:06:04;4.60;99.90
35027;DHT22;60696;51.426;6.934;2022-12-07T08:08:30;4.80;99.90
35027;DHT22;60696;51.426;6.934;2022-12-07T08:10:56;4.90;99.90
35027;DHT22;60696;51.426;6.934;2022-12-07T08:13:22;5.00;99.90
35027;DHT22;60696;51.426;6.934;2022-12-07T08:15:47;5.10;99.90
35027;DHT22;60696;51.426;6.934;2022-12-07T08:18:14;5.20;99.90
35027;DHT22;60696;51.426;6.934;2022-12-07T08:20:41;5.30;99.90
35027;DHT22;60696;51.426;6.934;2022-12-07T08:23:07;5.30;99.90
35027;DHT22;60696;51.426;6.934;2022-12-07T08:25:34;5.40;99.90
35027;DHT22;60696;51.426;6.934;2022-12-07T08:28:00;5.40;99.90
35027;DHT22;60696;51.426;6.934;2022-12-07T08:30:27;5.40;99.90
35027;DHT22;60696;51.426;6.934;2022-12-07T08:32:53;5.40;99.90
35027;DHT22;60696;51.426;6.934;2022-12-07T08:35:18;5.30;99.90
35027;DHT22;60696;51.426;6.934;2022-12-07T08:37:44;5.40;99.90
35027;DHT22;60696;51.426;6.934;2022-12-07T08:40:11;5.30;99.90
35027;DHT22;60696;51.426;6.934;2022-12-07T08:42:43;5.20;99.90
35027;DHT22;60696;51.426;6.934;2022-12-07T08:45:12;5.20;99.90
35027;DHT22;60696;51.426;6.934;2022-12-07T08:47:43;5.20;99.90
35027;DHT22;60696;51.426;6.934;2022-12-07T08:50:10;5.30;99.90
35027;DHT22;60696;51.426;6.934;2022-12-07T08:52:37;5.30;99.90
35027;DHT22;60696;51.426;6.934;2022-12-07T08:55:04;5.40;99.90
35027;DHT22;60696;51.426;6.934;2022-12-07T08:57:30;5.70;99.90
35027;DHT22;60696;51.426;6.934;2022-12-07T08:59:57;5.90;99.90
35027;DHT22;60696;51.426;6.934;2022-12-07T09:02:23;6.20;99.90
35027;DHT22;60696;51.426;6.934;2022-12-07T09:04:49;6.30;99.90
35027;DHT22;60696;51.426;6.934;2022-12-07T09:07:14;6.20;99.90
35027;DHT22;60696;51.426;6.934;2022-12-07T09:09:40;6.00;99.90
35027;DHT22;60696;51.426;6.934;2022-12-07T09:12:07;5.80;99.90
35027;DHT22;60696;51.426;6.934;2022-12-07T09:14:32;5.60;99.90
35027;DHT22;60696;51.426;6.934;2022-12-07T09:17:09;5.60;99.90
35027;DHT22;60696;51.426;6.934;2022-12-07T09:19:35;5.50;99.90
35027;DHT22;60696;51.426;6.934;2022-12-07T09:22:01;5.40;99.90
35027;DHT22;60696;51.426;6.934;2022-12-07T09:24:27;5.50;99.90
35027;DHT22;60696;51.426;6.934;2022-12-07T09:26:53;5.70;99.90
35027;DHT22;60696;51.426;6.934;2022-12-07T09:29:18;6.10;99.90
35027;DHT22;60696;51.426;6.934;2022-12-07T09:31:44;6.40;99.90
35027;DHT22;60696;51.426;6.934;2022-12-07T09:34:09;6.50;99.90
35027;DHT22;60696;51.426;6.934;2022-12-07T09:36:35;6.70;99.90
35027;DHT22;60696;51.426;6.934;2022-12-07T09:39:01;6.80;99.90
35027;DHT22;60696;51.426;6.934;2022-12-07T09:41:30;6.80;99.90
35027;DHT22;60696;51.426;6.934;2022-12-07T09:44:12;6.90;99.90
35027;DHT22;60696;51.426;6.934;2022-12-07T09:46:41;6.80;99.90
35027;DHT22;60696;51.426;6.934;2022-12-07T09:49:29;6.70;99.90
35027;DHT22;60696;51.426;6.934;2022-12-07T09:54:35;6.50;99.90
35027;DHT22;60696;51.426;6.934;2022-12-07T09:57:02;6.40;99.90
35027;DHT22;60696;51.426;6.934;2022-12-07T09:59:27;6.30;99.90
35027;DHT22;60696;51.426;6.934;2022-12-07T10:01:54;6.40;99.90
35027;DHT22;60696;51.426;6.934;2022-12-07T10:04:24;6.50;99.90
35027;DHT22;60696;51.426;6.934;2022-12-07T10:06:51;6.70;99.90
35027;DHT22;60696;51.426;6.934;2022-12-07T10:09:19;6.90;99.90
35027;DHT22;60696;51.426;6.934;2022-12-07T10:12:09;7.30;99.90
35027;DHT22;60696;51.426;6.934;2022-12-07T10:14:38;7.70;99.90
35027;DHT22;60696;51.426;6.934;2022-12-07T10:17:28;8.00;99.90
35027;DHT22;60696;51.426;6.934;2022-12-07T10:22:36;11.70;99.90
35027;DHT22;60696;51.426;6.934;2022-12-07T10:25:18;13.70;99.90
35027;DHT22;60696;51.426;6.934;2022-12-07T10:27:57;15.10;99.90
35027;DHT22;60696;51.426;6.934;2022-12-07T10:30:23;15.40;99.90
35027;DHT22;60696;51.426;6.934;2022-12-07T10:32:49;14.90;99.90
35027;DHT22;60696;51.426;6.934;2022-12-07T10:35:29;13.90;99.90
35027;DHT22;60696;51.426;6.934;2022-12-07T10:37:57;12.60;99.90
35027;DHT22;60696;51.426;6.934;2022-12-07T10:40:33;11.80;99.90
35027;DHT22;60696;51.426;6.934;2022-12-07T10:52:05;10.50;99.90
35027;DHT22;60696;51.426;6.934;2022-12-07T10:58:07;9.50;99.90
35027;DHT22;60696;51.426;6.934;2022-12-07T11:00:53;9.20;99.90
35027;DHT22;60696;51.426;6.934;2022-12-07T11:03:44;9.00;99.90
35027;DHT22;60696;51.426;6.934;2022-12-07T11:11:55;8.10;99.90
35027;DHT22;60696;51.426;6.934;2022-12-07T11:17:59;7.70;99.90
35027;DHT22;60696;51.426;6.934;2022-12-07T11:20:37;7.60;99.90
35027;DHT22;60696;51.426;6.934;2022-12-07T11:37:44;7.30;99.90
35027;DHT22;60696;51.426;6.934;2022-12-07T11:40:18;7.40;99.90
35027;DHT22;60696;51.426;6.934;2022-12-07T11:45:33;7.50;99.90
35027;DHT22;60696;51.426;6.934;2022-12-07T11:48:07;7.70;99.90
35027;DHT22;60696;51.426;6.934;2022-12-07T11:59:02;8.10;99.90
35027;DHT22;60696;51.426;6.934;2022-12-07T12:06:33;8.20;99.90
35027;DHT22;60696;51.426;6.934;2022-12-07T12:19:42;7.60;99.90
35027;DHT22;60696;51.426;6.934;2022-12-07T12:24:38;7.50;99.90
35027;DHT22;60696;51.426;6.934;2022-12-07T12:27:25;7.40;99.90
35027;DHT22;60696;51.426;6.934;2022-12-07T12:29:57;7.30;99.90
35027;DHT22;60696;51.426;6.934;2022-12-07T12:34:58;7.40;99.90
35027;DHT22;60696;51.426;6.934;2022-12-07T12:42:51;7.30;99.90
35027;DHT22;60696;51.426;6.934;2022-12-07T12:45:31;7.20;99.90
35027;DHT22;60696;51.426;6.934;2022-12-07T12:48:04;7.30;99.90
35027;DHT22;60696;51.426;6.934;2022-12-07T12:50:37;7.30;99.90
35027;DHT22;60696;51.426;6.934;2022-12-07T12:53:32;7.30;99.90
35027;DHT22;60696;51.426;6.934;2022-12-07T12:58:30;7.30;99.90
35027;DHT22;60696;51.426;6.934;2022-12-07T13:04:00;7.30;99.90
35027;DHT22;60696;51.426;6.934;2022-12-07T13:08:55;7.10;99.90
35027;DHT22;60696;51.426;6.934;2022-12-07T13:11:32;7.10;99.90
35027;DHT22;60696;51.426;6.934;2022-12-07T13:17:02;7.20;99.90
35027;DHT22;60696;51.426;6.934;2022-12-07T13:19:54;7.30;99.90
35027;DHT22;60696;51.426;6.934;2022-12-07T13:25:28;7.10;99.90
35027;DHT22;60696;51.426;6.934;2022-12-07T13:28:07;6.90;99.90
35027;DHT22;60696;51.426;6.934;2022-12-07T13:30:47;6.90;99.90
35027;DHT22;60696;51.426;6.934;2022-12-07T13:33:16;7.00;99.90
35027;DHT22;60696;51.426;6.934;2022-12-07T13:35:42;7.00;99.90
35027;DHT22;60696;51.426;6.934;2022-12-07T13:38:51;6.80;99.90
35027;DHT22;60696;51.426;6.934;2022-12-07T13:41:20;6.80;99.90
35027;DHT22;60696;51.426;6.934;2022-12-07T13:51:46;6.50;99.90
35027;DHT22;60696;51.426;6.934;2022-12-07T13:54:13;6.40;99.90
35027;DHT22;60696;51.426;6.934;2022-12-07T13:56:40;6.30;99.90
35027;DHT22;60696;51.426;6.934;2022-12-07T13:59:19;6.30;99.90
35027;DHT22;60696;51.426;6.934;2022-12-07T14:01:47;6.10;99.90
35027;DHT22;60696;51.426;6.934;2022-12-07T14:04:17;6.20;99.90
35027;DHT22;60696;51.426;6.934;2022-12-07T14:06:49;6.20;99.90
35027;DHT22;60696;51.426;6.934;2022-12-07T14:09:18;6.20;99.90
35027;DHT22;60696;51.426;6.934;2022-12-07T14:11:46;6.10;99.90
35027;DHT22;60696;51.426;6.934;2022-12-07T14:14:20;6.10;99.90
35027;DHT22;60696;51.426;6.934;2022-12-07T14:17:02;6.10;99.90
35027;DHT22;60696;51.426;6.934;2022-12-07T14:22:24;5.90;99.90
35027;DHT22;60696;51.426;6.934;2022-12-07T14:24:51;5.80;99.90
35027;DHT22;60696;51.426;6.934;2022-12-07T14:27:23;5.80;99.90
35027;DHT22;60696;51.426;6.934;2022-12-07T14:29:55;5.80;99.90
35027;DHT22;60696;51.426;6.934;2022-12-07T14:32:26;5.70;99.90
35027;DHT22;60696;51.426;6.934;2022-12-07T14:35:02;5.70;99.90
35027;DHT22;60696;51.426;6.934;2022-12-07T14:37:29;5.70;99.90
35027;DHT22;60696;51.426;6.934;2022-12-07T14:39:56;5.60;99.90
35027;DHT22;60696;51.426;6.934;2022-12-07T14:42:24;5.50;99.90
35027;DHT22;60696;51.426;6.934;2022-12-07T14:44:50;5.50;99.90
35027;DHT22;60696;51.426;6.934;2022-12-07T14:47:16;5.50;99.90
35027;DHT22;60696;51.426;6.934;2022-12-07T14:49:41;5.40;99.90
35027;DHT22;60696;51.426;6.934;2022-12-07T14:52:27;5.30;99.90
35027;DHT22;60696;51.426;6.934;2022-12-07T14:54:55;5.30;99.90
35027;DHT22;60696;51.426;6.934;2022-12-07T14:57:21;5.30;99.90
35027;DHT22;60696;51.426;6.934;2022-12-07T14:59:46;5.20;99.90
35027;DHT22;60696;51.426;6.934;2022-12-07T15:02:15;5.10;99.90
35027;DHT22;60696;51.426;6.934;2022-12-07T15:04:40;5.10;99.90
35027;DHT22;60696;51.426;6.934;2022-12-07T15:07:15;5.00;99.90
35027;DHT22;60696;51.426;6.934;2022-12-07T15:09:43;5.00;99.90
35027;DHT22;60696;51.426;6.934;2022-12-07T15:12:09;4.90;99.90
35027;DHT22;60696;51.426;6.934;2022-12-07T15:14:34;4.90;99.90
35027;DHT22;60696;51.426;6.934;2022-12-07T15:17:00;4.80;99.90
35027;DHT22;60696;51.426;6.934;2022-12-07T15:19:26;4.80;99.90
35027;DHT22;60696;51.426;6.934;2022-12-07T15:21:52;4.70;99.90
35027;DHT22;60696;51.426;6.934;2022-12-07T15:24:19;4.70;99.90
35027;DHT22;60696;51.426;6.934;2022-12-07T15:26:45;4.60;99.90
35027;DHT22;60696;51.426;6.934;2022-12-07T15:29:11;4.50;99.90
35027;DHT22;60696;51.426;6.934;2022-12-07T15:31:37;4.50;99.90
35027;DHT22;60696;51.426;6.934;2022-12-07T15:34:03;4.50;99.90
35027;DHT22;60696;51.426;6.934;2022-12-07T15:36:31;4.50;99.90
35027;DHT22;60696;51.426;6.934;2022-12-07T15:38:57;4.50;99.90
35027;DHT22;60696;51.426;6.934;2022-12-07T15:41:23;4.50;99.90
35027;DHT22;60696;51.426;6.934;2022-12-07T15:43:48;4.40;99.90
35027;DHT22;60696;51.426;6.934;2022-12-07T15:46:38;4.40;99.90
35027;DHT22;60696;51.426;6.934;2022-12-07T15:49:09;4.40;99.90
35027;DHT22;60696;51.426;6.934;2022-12-07T15:51:35;4.40;99.90
35027;DHT22;60696;51.426;6.934;2022-12-07T15:54:01;4.40;99.90
35027;DHT22;60696;51.426;6.934;2022-12-07T15:56:26;4.40;99.90
35027;DHT22;60696;51.426;6.934;2022-12-07T15:58:52;4.40;99.90
35027;DHT22;60696;51.426;6.934;2022-12-07T16:01:18;4.30;99.90
35027;DHT22;60696;51.426;6.934;2022-12-07T16:03:45;4.40;99.90
35027;DHT22;60696;51.426;6.934;2022-12-07T16:06:11;4.40;99.90
35027;DHT22;60696;51.426;6.934;2022-12-07T16:08:42;4.40;99.90
35027;DHT22;60696;51.426;6.934;2022-12-07T16:11:09;4.40;99.90
35027;DHT22;60696;51.426;6.934;2022-12-07T16:13:34;4.40;99.90
35027;DHT22;60696;51.426;6.934;2022-12-07T16:16:05;4.50;99.90
35027;DHT22;60696;51.426;6.934;2022-12-07T16:18:31;4.50;99.90
35027;DHT22;60696;51.426;6.934;2022-12-07T16:20:56;4.50;99.90
35027;DHT22;60696;51.426;6.934;2022-12-07T16:23:22;4.50;99.90
35027;DHT22;60696;51.426;6.934;2022-12-07T16:25:48;4.70;99.90
35027;DHT22;60696;51.426;6.934;2022-12-07T16:28:13;4.70;99.90
35027;DHT22;60696;51.426;6.934;2022-12-07T16:30:39;4.70;99.90
35027;DHT22;60696;51.426;6.934;2022-12-07T16:33:04;4.80;99.90
35027;DHT22;60696;51.426;6.934;2022-12-07T16:35:30;4.70;99.90
35027;DHT22;60696;51.426;6.934;2022-12-07T16:37:55;4.70;99.90
35027;DHT22;60696;51.426;6.934;2022-12-07T16:40:21;4.80;99.90
35027;DHT22;60696;51.426;6.934;2022-12-07T16:42:47;4.90;99.90
35027;DHT22;60696;51.426;6.934;2022-12-07T16:45:12;4.80;99.90
35027;DHT22;60696;51.426;6.934;2022-12-07T16:47:39;4.90;99.90
35027;DHT22;60696;51.426;6.934;2022-12-07T16:50:05;4.90;99.90
35027;DHT22;60696;51.426;6.934;2022-12-07T16:52:30;5.00;99.90
35027;DHT22;60696;51.426;6.934;2022-12-07T16:54:56;5.00;99.90
35027;DHT22;60696;51.426;6.934;2022-12-07T16:57:22;5.00;99.90
35027;DHT22;60696;51.426;6.934;2022-12-07T16:59:47;5.00;99.90
35027;DHT22;60696;51.426;6.934;2022-12-07T17:02:13;5.00;99.90
35027;DHT22;60696;51.426;6.934;2022-12-07T17:04:39;5.00;99.90
35027;DHT22;60696;51.426;6.934;2022-12-07T17:07:08;5.10;99.90
35027;DHT22;60696;51.426;6.934;2022-12-07T17:09:34;5.00;99.90
35027;DHT22;60696;51.426;6.934;2022-12-07T17:12:00;5.10;99.90
35027;DHT22;60696;51.426;6.934;2022-12-07T17:14:26;5.10;99.90
35027;DHT22;60696;51.426;6.934;2022-12-07T17:17:10;5.10;99.90
35027;DHT22;60696;51.426;6.934;2022-12-07T17:19:36;5.10;99.90
35027;DHT22;60696;51.426;6.934;2022-12-07T17:22:01;5.10;99.90
35027;DHT22;60696;51.426;6.934;2022-12-07T17:24:27;5.10;99.90
35027;DHT22;60696;51.426;6.934;2022-12-07T17:26:53;5.10;99.90
35027;DHT22;60696;51.426;6.934;2022-12-07T17:29:19;5.10;99.90
35027;DHT22;60696;51.426;6.934;2022-12-07T17:31:46;5.10;99.90
35027;DHT22;60696;51.426;6.934;2022-12-07T17:34:13;5.10;99.90
35027;DHT22;60696;51.426;6.934;2022-12-07T17:36:39;5.10;99.90
35027;DHT22;60696;51.426;6.934;2022-12-07T17:39:09;5.10;99.90
35027;DHT22;60696;51.426;6.934;2022-12-07T17:41:36;5.10;99.90
35027;DHT22;60696;51.426;6.934;2022-12-07T17:44:21;5.10;99.90
35027;DHT22;60696;51.426;6.934;2022-12-07T17:46:49;5.10;99.90
35027;DHT22;60696;51.426;6.934;2022-12-07T17:49:15;5.10;99.90
35027;DHT22;60696;51.426;6.934;2022-12-07T17:51:41;5.10;99.90
35027;DHT22;60696;51.426;6.934;2022-12-07T17:54:26;5.00;99.90
35027;DHT22;60696;51.426;6.934;2022-12-07T17:56:51;5.00;99.90
35027;DHT22;60696;51.426;6.934;2022-12-07T17:59:17;5.00;99.90